ADDS TAF Board (Experimental) INFO

IDs: Format: Expanded Condensed

Updated at: 0259 UTC 23 Dec 2014

KATL - Atlanta/Hartsfield-J, GA, US

Issued at 0132 UTC 23 Dec 2014
Time0252Z23/03Z23/04Z23/05Z23/06Z23/07Z23/08Z23/09Z23/10Z23/11Z23/12Z23/13Z23/14Z23/15Z
TypeOBSPRVLPRVLPRVLPRVLPRVLPRVLPRVLPRVLPRVLPRVLPRVLPRVLPRVL
VIS3>644220.50.50.50.50.50.50.52
CIG46553322222228
CoverOVCOVCOVCOVCOVCOVCOVCOVCOVCOVCOVCOVCOVCOVC
FltCatLIFRIFRIFRIFRLIFRLIFRLIFRLIFRLIFRLIFRLIFRLIFRLIFRIFR
WX---RA-RA BR-RA BR-DZ BR-DZ BR-DZ FG-DZ FG-DZ FG-DZ FG-DZ FG-DZ FG-DZ FG-SHRA BR
WDir100100100100100100100100100100100100100110
WSpd910998888888888
WGst----------------------------
R08/26
XWnd-2-2-2-2-1-1-1-1-1-1-1-1-1-3
HWnd910998888888888
R09/27
XWnd-2-2-2-2-1-1-1-1-1-1-1-1-1-3
HWnd910998888888888
R10/28
XWnd-2-2-2-2-1-1-1-1-1-1-1-1-1-3
HWnd910998888888888
Raw TAF
KATL 230132Z 2302/2406 10010KT P6SM -RA OVC006
  FM230400 10009KT 4SM -RA BR OVC005
  FM230600 10008KT 2SM -DZ BR OVC003
  FM230800 10008KT 1/2SM -DZ FG OVC002
  FM231500 11008KT 2SM -SHRA BR OVC008
  FM231900 13008KT 6SM -SHRA BR OVC012


Raw METAR
KATL 230252Z 10009KT 3SM OVC004 07/06 A2992 RMK AO2 SFC VIS 10 RAB04E17 SLP136 P0000 60012 T00670056 55000
KATL 230152Z 10010G17KT 10SM OVC005 07/06 A2992 RMK AO2 RAE15 SLP133 CIG 003V006 P0001 T00670056

TAF Board Legend

Hazard VFR MVFR IFR LIFR
Visibility (sm) >5 3≤X≤5 1≤X<3 <1
Ceiling (100 ft) >30 10≤X≤30 5≤X<10 <5
Wind Speed (kt) <10 10≤X<20 20≤X<30 ≥30
Wind Gust (kt) <15 15≤X<25 25≤X<35 ≥35
Weather No Wx Reported VCTS,-TS,-FZRA TS,FZRA +TS,+FZRA


Page loaded:  02:59 UTC  |   06:59 PM Pacific  |   07:59 PM Mountain  |   08:59 PM Central  |   09:59 PM Eastern

 

ADVISORIES

FORECASTS

FORECASTS

OBSERVATIONS

USER TOOLS

ABOUT US